Aeroporto :
LOGIN :

Iscrizione | Disclaimer

   EN    FR    IT 

 










Sommario :    VFR   VFR Marginale   IFR   IFR Intensivo   IFR Molto Intensivo
Visibilità : 
Base nubi : 
>= 8 km
>= 3000ft
5 / 8 km
1000 / 3000 ft
1500m / 5 km
500 / 1000 ft
800 / 1500m
200 / 500 ft
< 800m
< 200 ft
Simboli :   Temporali  Nebbia  Neve Forte  Precipitazioni Forti  Vento > 20 kt
SIGMETs :   Varie  Temporali  Ghiacco  Turbolenza  Onda orograficha  Ceneri Vulcaniche






- Altitudine del aeroporto : 277 ft
- Codice IATA : JER


EGJJ - Jersey

ULTIMO METAR :
  • 231250Z 05004KT 010V080 9999 VCSH FEW015 14/12 Q1009

METARs OBSOLETI :
  • 231220Z 06006KT 020V090 9999 FEW010 14/12 Q1010
  • 231150Z 05008KT 020V100 9999 FEW010 14/12 Q1010
  • 231120Z 04011KT 010V070 9999 FEW010 14/12 Q1010
  • 231050Z 04010KT 9999 FEW012 14/12 Q1010
  • 231020Z 05010KT 020V080 9999 FEW012 SCT045 13/12 Q1011

TAF TAF EGJJ
Valido dal 23 a 12 ore il 23 a 21 ore UTC


231057Z 2312/2321 05011KT 9999 FEW010 SCT015 BKN030
PROB30
TEMPO 2312/2321 6000 -DZ BKN006
BECMG 2318/2321 VRB03KT
ATIS : +44 1534 498 073



MetMap, La meteo Aeronautica in un colpo d'occhio ! - Copyright ORBIFLY Dicembre 2007 - Disclaimer

ORBIFLY MET'MAP TEAM :

Programmazione e sviluppo : Alexandra Zaïnal
Concezione e sviluppo : Baudouin d'Aumeries
Co-Programmazione e sviluppo : Marc-Olivier Méhu
Supporto tecnico e logistico : Manuel Goepfert
Aiuto per la traduzione : Arnaldo La Scala

Contatto : metmap@orbifly.com




FONTI E CREDITI :

   NOAA